createdAt,value
2023-02-05T00:02:10.517Z,-0.10
2023-02-05T00:04:38.262Z,-0.10
2023-02-05T00:07:06.234Z,-0.10
2023-02-05T00:09:33.712Z,-0.10
2023-02-05T00:12:01.047Z,-0.10
2023-02-05T00:14:29.712Z,0.00
2023-02-05T00:16:56.938Z,0.00
2023-02-05T00:19:24.132Z,0.00
2023-02-05T00:21:51.385Z,0.00
2023-02-05T00:24:18.751Z,0.00
2023-02-05T00:26:45.884Z,0.00
2023-02-05T00:29:13.082Z,-0.10
2023-02-05T00:31:40.326Z,-0.10
2023-02-05T00:34:07.804Z,-0.10
2023-02-05T00:36:34.961Z,-0.20
2023-02-05T00:39:02.110Z,-0.30
2023-02-05T00:41:29.277Z,-0.40
2023-02-05T00:43:56.409Z,-0.50
2023-02-05T00:46:23.566Z,-0.60
2023-02-05T00:48:50.730Z,-0.50
2023-02-05T00:51:18.014Z,-0.50
2023-02-05T00:53:45.212Z,-0.60
2023-02-05T00:56:12.420Z,-0.60
2023-02-05T00:58:39.763Z,-0.60
2023-02-05T01:01:07.079Z,-0.50
2023-02-05T01:03:34.270Z,-0.50
2023-02-05T01:06:03.517Z,-0.50
2023-02-05T01:08:30.782Z,-0.60
2023-02-05T01:10:58.025Z,-0.70
2023-02-05T01:13:25.917Z,-0.80
2023-02-05T01:15:53.113Z,-0.90
2023-02-05T01:18:20.461Z,-0.90
2023-02-05T01:20:47.662Z,-1.00
2023-02-05T01:23:14.781Z,-1.00
2023-02-05T01:25:41.893Z,-1.00
2023-02-05T01:28:09.160Z,-1.10
2023-02-05T01:30:36.778Z,-1.10
2023-02-05T01:33:05.087Z,-1.20
2023-02-05T01:35:32.970Z,-1.20
2023-02-05T01:38:00.494Z,-1.30
2023-02-05T01:40:27.840Z,-1.20
2023-02-05T01:42:55.113Z,-1.10
2023-02-05T01:45:22.202Z,-1.10
2023-02-05T01:47:55.345Z,-1.10
2023-02-05T01:50:32.859Z,-1.00
2023-02-05T01:53:03.595Z,-1.00
2023-02-05T01:55:32.016Z,-1.10
2023-02-05T01:58:01.658Z,-1.10
2023-02-05T02:00:29.001Z,-1.10
2023-02-05T02:02:56.261Z,-1.10
2023-02-05T02:05:23.404Z,-1.20
2023-02-05T02:07:50.626Z,-1.20
2023-02-05T02:10:19.511Z,-1.20
2023-02-05T02:12:48.775Z,-1.20
2023-02-05T02:15:24.025Z,-1.20
2023-02-05T02:17:56.783Z,-1.20
2023-02-05T02:20:31.236Z,-1.20
2023-02-05T02:23:03.818Z,-1.20
2023-02-05T02:25:45.927Z,-1.20
2023-02-05T02:28:54.902Z,-1.10
2023-02-05T02:31:30.942Z,-1.10
2023-02-05T02:34:03.616Z,-1.10
2023-02-05T02:36:38.205Z,-1.00
2023-02-05T02:39:37.468Z,-0.90
2023-02-05T02:42:16.181Z,-0.90
2023-02-05T02:44:58.100Z,-0.80
2023-02-05T02:47:32.619Z,-0.80
2023-02-05T02:50:04.790Z,-0.80
2023-02-05T02:52:36.342Z,-0.80
2023-02-05T02:55:09.760Z,-0.70
2023-02-05T02:57:40.673Z,-0.70
2023-02-05T03:00:18.673Z,-0.70
2023-02-05T03:02:48.773Z,-0.70
2023-02-05T03:05:19.348Z,-0.70
2023-02-05T03:07:57.018Z,-0.70
2023-02-05T03:10:26.348Z,-0.60
2023-02-05T03:12:56.139Z,-0.50
2023-02-05T03:15:24.790Z,-0.40
2023-02-05T03:17:55.310Z,-0.40
2023-02-05T03:20:27.657Z,-0.40
2023-02-05T03:22:56.218Z,-0.40
2023-02-05T03:25:25.585Z,-0.40
2023-02-05T03:27:54.365Z,-0.30
2023-02-05T03:30:22.814Z,-0.30
2023-02-05T03:33:16.276Z,-0.40
2023-02-05T03:35:59.859Z,-0.50
2023-02-05T03:39:12.138Z,-0.60
2023-02-05T03:41:56.150Z,-0.90
2023-02-05T03:44:38.617Z,-1.00
2023-02-05T03:47:30.712Z,-1.10
2023-02-05T03:50:13.452Z,-1.30
2023-02-05T03:52:52.039Z,-1.40
2023-02-05T03:55:24.053Z,-1.40
2023-02-05T03:58:04.228Z,-1.60
2023-02-05T04:00:32.845Z,-1.70
2023-02-05T04:03:00.119Z,-1.80
2023-02-05T04:05:27.351Z,-1.90
2023-02-05T04:07:54.667Z,-2.00
2023-02-05T04:10:22.290Z,-2.10
2023-02-05T04:12:49.476Z,-2.20
2023-02-05T04:15:16.816Z,-2.20
2023-02-05T04:17:43.964Z,-2.20
2023-02-05T04:20:11.682Z,-2.30
2023-02-05T04:22:38.847Z,-2.30
2023-02-05T04:25:06.360Z,-2.30
2023-02-05T04:27:34.033Z,-2.30
2023-02-05T04:30:01.214Z,-2.30
2023-02-05T04:32:29.045Z,-2.30
2023-02-05T04:34:56.297Z,-2.30
2023-02-05T04:37:25.191Z,-2.20
2023-02-05T04:39:52.506Z,-2.10
2023-02-05T04:42:19.750Z,-2.00
2023-02-05T04:44:47.014Z,-1.90
2023-02-05T04:47:15.676Z,-1.80
2023-02-05T04:49:42.834Z,-1.70
2023-02-05T04:52:09.990Z,-1.70
2023-02-05T04:54:39.936Z,-1.60
2023-02-05T04:57:07.129Z,-1.50
2023-02-05T04:59:34.391Z,-1.40
2023-02-05T05:02:01.745Z,-1.30
2023-02-05T05:04:28.949Z,-1.30
2023-02-05T05:06:56.147Z,-1.20
2023-02-05T05:09:24.460Z,-1.20
2023-02-05T05:11:53.128Z,-1.20
2023-02-05T05:14:20.466Z,-1.10
2023-02-05T05:16:50.090Z,-1.10
2023-02-05T05:19:17.648Z,-1.10
2023-02-05T05:21:44.935Z,-1.10
2023-02-05T05:24:12.130Z,-1.10
2023-02-05T05:26:43.958Z,-1.00
2023-02-05T05:29:14.872Z,-1.10
2023-02-05T05:31:42.823Z,-1.10
2023-02-05T05:34:10.087Z,-1.10
2023-02-05T05:36:37.306Z,-1.20
2023-02-05T05:39:22.917Z,-1.30
2023-02-05T05:42:08.662Z,-1.30
2023-02-05T05:44:35.871Z,-1.30
2023-02-05T05:47:03.184Z,-1.40
2023-02-05T05:49:30.324Z,-1.40
2023-02-05T05:51:57.563Z,-1.40
2023-02-05T05:54:24.726Z,-1.40
2023-02-05T05:56:51.897Z,-1.40
2023-02-05T05:59:19.082Z,-1.50
2023-02-05T06:01:46.258Z,-1.50
2023-02-05T06:04:13.508Z,-1.60
2023-02-05T06:06:42.025Z,-1.60
2023-02-05T06:09:09.334Z,-1.70
2023-02-05T06:11:36.588Z,-1.80
2023-02-05T06:14:03.762Z,-1.80
2023-02-05T06:16:32.672Z,-1.90
2023-02-05T06:19:00.499Z,-1.90
2023-02-05T06:21:27.720Z,-1.90
2023-02-05T06:23:54.906Z,-1.90
2023-02-05T06:26:22.171Z,-1.90
2023-02-05T06:28:49.385Z,-2.10
2023-02-05T06:31:17.866Z,-2.10
2023-02-05T06:33:45.173Z,-2.10
2023-02-05T06:36:12.382Z,-2.10
2023-02-05T06:38:39.539Z,-2.20
2023-02-05T06:41:06.741Z,-2.30
2023-02-05T06:43:33.954Z,-2.30
2023-02-05T06:46:01.191Z,-2.30
2023-02-05T06:48:28.398Z,-2.30
2023-02-05T06:50:55.583Z,-2.20
2023-02-05T06:53:22.857Z,-2.30
2023-02-05T06:55:50.095Z,-2.30
2023-02-05T06:58:17.265Z,-2.30
2023-02-05T07:00:44.497Z,-2.30
2023-02-05T07:03:11.719Z,-2.40
2023-02-05T07:05:38.883Z,-2.40
2023-02-05T07:08:07.057Z,-2.40
2023-02-05T07:10:34.243Z,-2.50
2023-02-05T07:13:01.583Z,-2.50
2023-02-05T07:15:28.754Z,-2.60
2023-02-05T07:17:56.090Z,-2.50
2023-02-05T07:20:23.583Z,-2.50
2023-02-05T07:22:50.790Z,-2.50
2023-02-05T07:25:17.996Z,-2.40
2023-02-05T07:27:45.261Z,-2.40
2023-02-05T07:30:13.199Z,-2.40
2023-02-05T07:32:40.378Z,-2.40
2023-02-05T07:35:07.701Z,-2.30
2023-02-05T07:37:37.622Z,-2.20
2023-02-05T07:40:05.180Z,-2.10
2023-02-05T07:42:32.383Z,-2.00
2023-02-05T07:44:59.569Z,-1.90
2023-02-05T07:47:26.735Z,-1.70
2023-02-05T07:49:53.946Z,-1.70
2023-02-05T07:52:21.197Z,-1.60
2023-02-05T07:54:49.327Z,-1.60
2023-02-05T07:57:16.542Z,-1.40
2023-02-05T07:59:43.810Z,-1.30
2023-02-05T08:02:12.615Z,-1.30
2023-02-05T08:04:40.309Z,-1.10
2023-02-05T08:07:07.496Z,-1.00
2023-02-05T08:09:34.739Z,-0.90
2023-02-05T08:12:01.941Z,-0.80
2023-02-05T08:14:31.818Z,-0.70
2023-02-05T08:16:59.626Z,-0.60
2023-02-05T08:19:26.903Z,-0.50
2023-02-05T08:21:54.198Z,-0.40
2023-02-05T08:24:21.389Z,-0.40
2023-02-05T08:26:48.669Z,-0.30
2023-02-05T08:29:15.953Z,-0.20
2023-02-05T08:31:43.297Z,-0.20
2023-02-05T08:34:10.530Z,-0.10
2023-02-05T08:36:37.694Z,0.00
2023-02-05T08:39:05.185Z,0.00
2023-02-05T08:41:32.324Z,0.10
2023-02-05T08:43:59.590Z,0.20
2023-02-05T08:46:31.629Z,0.30
2023-02-05T08:49:04.914Z,0.30
2023-02-05T08:51:33.578Z,0.30
2023-02-05T08:54:00.798Z,0.30
2023-02-05T08:56:28.051Z,0.40
2023-02-05T08:58:55.224Z,0.50
2023-02-05T09:01:22.402Z,0.50
2023-02-05T09:03:49.631Z,0.60
2023-02-05T09:06:16.973Z,0.70
2023-02-05T09:08:44.252Z,0.60
2023-02-05T09:11:13.908Z,0.60
2023-02-05T09:13:41.396Z,0.50
2023-02-05T09:16:11.442Z,0.60
2023-02-05T09:18:38.871Z,0.80
2023-02-05T09:21:10.235Z,0.90
2023-02-05T09:23:38.174Z,1.10
2023-02-05T09:26:05.892Z,1.10
2023-02-05T09:28:33.159Z,1.10
2023-02-05T09:31:08.874Z,1.20
2023-02-05T09:33:36.256Z,1.30
2023-02-05T09:36:14.665Z,1.30
2023-02-05T09:38:42.216Z,1.30
2023-02-05T09:41:15.152Z,1.40
2023-02-05T09:43:57.430Z,1.40
2023-02-05T09:47:02.958Z,1.40
2023-02-05T09:49:53.471Z,1.40
2023-02-05T09:52:27.861Z,1.50
2023-02-05T09:55:05.045Z,1.60
2023-02-05T09:57:39.042Z,1.70
2023-02-05T10:00:31.929Z,1.70
2023-02-05T10:03:22.306Z,1.70
2023-02-05T10:06:12.686Z,1.70
2023-02-05T10:08:52.947Z,1.80
2023-02-05T10:11:34.584Z,1.70
2023-02-05T10:14:33.543Z,1.80
2023-02-05T10:17:29.604Z,1.90
2023-02-05T10:20:16.978Z,2.00
2023-02-05T10:23:15.463Z,1.80
2023-02-05T10:25:47.829Z,1.80
2023-02-05T10:28:45.457Z,1.90
2023-02-05T10:31:42.442Z,1.80
2023-02-05T10:34:36.770Z,1.80
2023-02-05T10:39:35.126Z,2.10
2023-02-05T10:42:29.481Z,2.10
2023-02-05T10:45:25.199Z,2.10
2023-02-05T10:48:24.754Z,2.30
2023-02-05T10:51:00.202Z,2.30
2023-02-05T10:53:28.701Z,2.40
2023-02-05T10:55:58.301Z,2.40
2023-02-05T10:58:55.826Z,2.30
2023-02-05T11:01:29.458Z,2.40
2023-02-05T11:04:08.050Z,2.50
2023-02-05T11:06:53.884Z,2.50
2023-02-05T11:09:26.921Z,2.50
2023-02-05T11:11:58.394Z,2.50
2023-02-05T11:14:39.693Z,2.60
2023-02-05T11:17:25.019Z,2.70
2023-02-05T11:19:57.325Z,2.80
2023-02-05T11:22:27.748Z,2.90
2023-02-05T11:25:11.843Z,2.80
2023-02-05T11:27:39.758Z,2.70
2023-02-05T11:30:58.785Z,2.70
2023-02-05T11:33:33.566Z,2.90
2023-02-05T11:36:04.718Z,2.80
2023-02-05T11:38:39.846Z,3.00
2023-02-05T11:41:09.280Z,3.20
2023-02-05T11:43:51.631Z,3.40
2023-02-05T11:46:25.119Z,3.40
2023-02-05T11:48:58.475Z,3.20
2023-02-05T11:51:54.409Z,3.40
2023-02-05T11:54:32.347Z,3.40
2023-02-05T11:57:23.308Z,3.60
2023-02-05T12:00:02.192Z,3.70
2023-02-05T12:02:33.844Z,3.90
2023-02-05T12:05:09.963Z,3.90
2023-02-05T12:08:16.416Z,3.80
2023-02-05T12:11:22.072Z,3.90
2023-02-05T12:13:57.872Z,4.00
2023-02-05T12:16:27.971Z,4.10
2023-02-05T12:19:11.543Z,4.20
2023-02-05T12:21:48.257Z,4.00
2023-02-05T12:24:24.215Z,3.60
2023-02-05T12:27:07.092Z,3.70
2023-02-05T12:30:06.230Z,3.80
2023-02-05T12:33:10.505Z,3.80
2023-02-05T12:36:00.753Z,3.70
2023-02-05T12:39:05.058Z,3.90
2023-02-05T12:41:53.428Z,4.00
2023-02-05T12:44:44.864Z,4.20
2023-02-05T12:47:23.640Z,4.40
2023-02-05T12:50:08.507Z,4.40
2023-02-05T12:52:41.697Z,4.60
2023-02-05T12:55:22.819Z,4.60
2023-02-05T12:57:57.792Z,4.20
2023-02-05T13:00:38.000Z,3.90
2023-02-05T13:03:23.119Z,3.60
2023-02-05T13:05:59.520Z,3.40
2023-02-05T13:08:49.287Z,3.10
2023-02-05T13:11:18.519Z,3.00
2023-02-05T13:14:03.077Z,2.80
2023-02-05T13:16:46.293Z,2.90
2023-02-05T13:19:41.164Z,3.00
2023-02-05T13:22:37.784Z,3.10
2023-02-05T13:25:38.134Z,3.20
2023-02-05T13:28:41.358Z,3.20
2023-02-05T13:31:25.263Z,3.30
2023-02-05T13:33:55.531Z,3.30
2023-02-05T13:36:27.567Z,3.30
2023-02-05T13:39:35.888Z,3.20
2023-02-05T13:42:44.987Z,2.90
2023-02-05T13:45:33.664Z,2.90
2023-02-05T13:48:15.729Z,3.00
2023-02-05T13:51:01.652Z,3.10
2023-02-05T13:54:09.059Z,3.20
2023-02-05T13:57:13.674Z,3.40
2023-02-05T13:59:54.507Z,3.20
2023-02-05T14:02:36.522Z,3.10
2023-02-05T14:05:05.129Z,3.20
2023-02-05T14:07:37.963Z,3.10
2023-02-05T14:10:06.515Z,3.00
2023-02-05T14:12:37.828Z,3.00
2023-02-05T14:15:20.809Z,2.80
2023-02-05T14:17:48.959Z,2.80
2023-02-05T14:20:26.236Z,2.90
2023-02-05T14:23:03.266Z,3.00
2023-02-05T14:25:38.337Z,3.00
2023-02-05T14:28:21.055Z,2.90
2023-02-05T14:30:55.438Z,2.90
2023-02-05T14:33:41.615Z,2.80
2023-02-05T14:36:24.343Z,2.80
2023-02-05T14:38:53.981Z,2.70
2023-02-05T14:41:32.148Z,2.70
2023-02-05T14:44:25.351Z,2.60
2023-02-05T14:47:04.129Z,2.60
2023-02-05T14:49:41.444Z,2.60
2023-02-05T14:52:36.141Z,2.60
2023-02-05T14:55:16.461Z,2.60
2023-02-05T14:58:06.438Z,2.50
2023-02-05T15:00:45.039Z,2.50
2023-02-05T15:03:27.774Z,2.50
2023-02-05T15:06:08.179Z,2.50
2023-02-05T15:08:35.768Z,2.40
2023-02-05T15:11:26.265Z,2.40
2023-02-05T15:14:35.922Z,2.30
2023-02-05T15:17:06.549Z,2.20
2023-02-05T15:19:43.309Z,2.10
2023-02-05T15:22:41.795Z,2.00
2023-02-05T15:25:57.133Z,1.90
2023-02-05T15:28:32.843Z,1.70
2023-02-05T15:31:16.791Z,1.60
2023-02-05T15:34:10.152Z,1.50
2023-02-05T15:36:47.701Z,1.40
2023-02-05T15:39:57.919Z,1.30
2023-02-05T15:42:28.700Z,1.20
2023-02-05T15:44:56.623Z,1.10
2023-02-05T15:47:27.501Z,1.00
2023-02-05T15:50:01.484Z,0.90
2023-02-05T15:52:31.640Z,0.90
2023-02-05T15:55:04.847Z,0.80
2023-02-05T15:57:34.406Z,0.80
2023-02-05T16:00:04.733Z,0.60
2023-02-05T16:02:33.643Z,0.50
2023-02-05T16:05:24.082Z,0.30
2023-02-05T16:07:57.649Z,0.20
2023-02-05T16:10:36.026Z,0.10
2023-02-05T16:13:15.434Z,0.10
2023-02-05T16:16:09.034Z,0.20
2023-02-05T16:18:54.049Z,0.10
2023-02-05T16:21:29.053Z,-0.20
2023-02-05T16:24:04.419Z,-0.30
2023-02-05T16:26:41.099Z,-0.50
2023-02-05T16:29:25.624Z,-0.60
2023-02-05T16:32:01.038Z,-0.70
2023-02-05T16:34:30.080Z,-0.70
2023-02-05T16:37:03.380Z,-0.70
2023-02-05T16:39:44.093Z,-0.80
2023-02-05T16:42:39.297Z,-0.90
2023-02-05T16:45:29.785Z,-0.80
2023-02-05T16:48:27.051Z,-0.70
2023-02-05T16:50:58.219Z,-0.60
2023-02-05T16:53:32.029Z,-0.50
2023-02-05T16:56:14.000Z,-0.50
2023-02-05T16:58:47.592Z,-0.70
2023-02-05T17:01:25.467Z,-0.80
2023-02-05T17:03:53.763Z,-0.80
2023-02-05T17:06:22.891Z,-0.90
2023-02-05T17:08:58.881Z,-1.00
2023-02-05T17:11:44.383Z,-1.20
2023-02-05T17:14:23.961Z,-1.20
2023-02-05T17:16:55.927Z,-1.30
2023-02-05T17:19:27.848Z,-1.40
2023-02-05T17:22:14.480Z,-1.50
2023-02-05T17:24:49.746Z,-1.60
2023-02-05T17:27:31.161Z,-1.60
2023-02-05T17:30:00.495Z,-1.60
2023-02-05T17:32:34.136Z,-1.70
2023-02-05T17:35:02.567Z,-1.70
2023-02-05T17:37:34.051Z,-1.50
2023-02-05T17:40:02.180Z,-1.60
2023-02-05T17:42:32.099Z,-1.60
2023-02-05T17:44:59.956Z,-1.60
2023-02-05T17:47:29.365Z,-1.60
2023-02-05T17:50:02.067Z,-1.80
2023-02-05T17:52:32.538Z,-1.80
2023-02-05T17:55:01.325Z,-1.90
2023-02-05T17:57:29.536Z,-2.00
2023-02-05T17:59:57.813Z,-2.10
2023-02-05T18:02:26.252Z,-2.10
2023-02-05T18:04:55.584Z,-2.10
2023-02-05T18:07:52.418Z,-2.10
2023-02-05T18:10:30.113Z,-2.10
2023-02-05T18:12:59.009Z,-2.10
2023-02-05T18:15:28.054Z,-2.30
2023-02-05T18:17:57.714Z,-2.30
2023-02-05T18:20:25.446Z,-2.40
2023-02-05T18:22:53.518Z,-2.40
2023-02-05T18:25:21.758Z,-2.30
2023-02-05T18:27:50.961Z,-2.30
2023-02-05T18:30:19.216Z,-2.30
2023-02-05T18:32:47.442Z,-2.30
2023-02-05T18:35:15.330Z,-2.40
2023-02-05T18:37:45.348Z,-2.40
2023-02-05T18:40:15.787Z,-2.40
2023-02-05T18:42:47.547Z,-2.50
2023-02-05T18:45:18.141Z,-2.60
2023-02-05T18:47:46.132Z,-2.60
2023-02-05T18:50:14.251Z,-2.70
2023-02-05T18:52:41.820Z,-2.70
2023-02-05T18:55:09.925Z,-2.70
2023-02-05T18:57:39.828Z,-2.60
2023-02-05T19:00:08.554Z,-2.60
2023-02-05T19:02:38.027Z,-2.60
2023-02-05T19:05:05.816Z,-2.60
2023-02-05T19:07:34.737Z,-2.70
2023-02-05T19:10:03.143Z,-2.70
2023-02-05T19:12:32.154Z,-2.80
2023-02-05T19:15:00.379Z,-2.70
2023-02-05T19:17:29.301Z,-2.80
2023-02-05T19:19:59.276Z,-2.70
2023-02-05T19:22:27.761Z,-2.70
2023-02-05T19:24:56.056Z,-2.60
2023-02-05T19:27:25.319Z,-2.50
2023-02-05T19:29:54.628Z,-2.60
2023-02-05T19:32:25.617Z,-2.70
2023-02-05T19:34:56.522Z,-2.80
2023-02-05T19:37:24.658Z,-2.90
2023-02-05T19:39:52.749Z,-2.90
2023-02-05T19:42:20.873Z,-2.90
2023-02-05T19:44:49.720Z,-2.90
2023-02-05T19:47:18.462Z,-3.00
2023-02-05T19:49:46.492Z,-3.00
2023-02-05T19:52:14.450Z,-3.10
2023-02-05T19:54:42.045Z,-3.10
2023-02-05T19:57:09.634Z,-3.10
2023-02-05T19:59:39.857Z,-3.10
2023-02-05T20:02:13.007Z,-3.10
2023-02-05T20:04:42.649Z,-2.80
2023-02-05T20:07:10.814Z,-2.60
2023-02-05T20:09:39.100Z,-2.30
2023-02-05T20:12:06.981Z,-2.30
2023-02-05T20:14:35.977Z,-2.40
2023-02-05T20:17:04.006Z,-2.50
2023-02-05T20:19:31.694Z,-2.60
2023-02-05T20:21:59.205Z,-2.70
2023-02-05T20:24:27.267Z,-2.80
2023-02-05T20:26:57.141Z,-2.90
2023-02-05T20:29:43.410Z,-2.90
2023-02-05T20:32:11.785Z,-3.00
2023-02-05T20:34:46.455Z,-3.10
2023-02-05T20:37:14.811Z,-3.10
2023-02-05T20:39:44.649Z,-3.10
2023-02-05T20:42:15.770Z,-3.00
2023-02-05T20:44:46.084Z,-3.10
2023-02-05T20:47:16.297Z,-3.20
2023-02-05T20:49:44.804Z,-3.20
2023-02-05T20:52:12.892Z,-3.20
2023-02-05T20:54:43.779Z,-3.20
2023-02-05T20:57:11.789Z,-3.10
2023-02-05T20:59:39.699Z,-2.90
2023-02-05T21:02:08.613Z,-2.80
2023-02-05T21:04:38.191Z,-2.60
2023-02-05T21:07:05.941Z,-2.50
2023-02-05T21:09:34.079Z,-2.60
2023-02-05T21:12:02.183Z,-2.60
2023-02-05T21:14:29.709Z,-2.70
2023-02-05T21:16:57.415Z,-2.70
2023-02-05T21:19:24.987Z,-2.80
2023-02-05T21:21:52.519Z,-2.70
2023-02-05T21:24:20.883Z,-2.80
2023-02-05T21:26:50.157Z,-2.80
2023-02-05T21:29:23.428Z,-2.80
2023-02-05T21:31:54.114Z,-2.80
2023-02-05T21:34:24.356Z,-2.80
2023-02-05T21:36:53.099Z,-2.90
2023-02-05T21:39:20.603Z,-3.00
2023-02-05T21:41:50.899Z,-3.10
2023-02-05T21:44:18.475Z,-3.20
2023-02-05T21:46:45.953Z,-3.10
2023-02-05T21:49:13.170Z,-3.10
2023-02-05T21:51:42.625Z,-3.10
2023-02-05T21:54:11.368Z,-3.10
2023-02-05T21:56:41.466Z,-3.10
2023-02-05T21:59:09.729Z,-3.20
2023-02-05T22:01:38.107Z,-3.20
2023-02-05T22:04:09.411Z,-3.20
2023-02-05T22:06:37.082Z,-3.20
2023-02-05T22:09:08.004Z,-3.20
2023-02-05T22:11:35.838Z,-3.30
2023-02-05T22:14:03.067Z,-3.40
2023-02-05T22:16:32.744Z,-3.40
2023-02-05T22:19:01.101Z,-3.50
2023-02-05T22:21:32.689Z,-3.40
2023-02-05T22:24:01.874Z,-3.50
2023-02-05T22:26:34.410Z,-3.60
2023-02-05T22:29:03.098Z,-3.70
2023-02-05T22:31:31.212Z,-3.60
2023-02-05T22:34:00.105Z,-3.60
2023-02-05T22:36:30.069Z,-3.50
2023-02-05T22:38:57.662Z,-3.40
2023-02-05T22:41:32.129Z,-3.40
2023-02-05T22:43:59.788Z,-3.40
2023-02-05T22:46:30.466Z,-3.50
2023-02-05T22:48:59.775Z,-3.50
2023-02-05T22:51:33.065Z,-3.40
2023-02-05T22:54:00.653Z,-3.40
2023-02-05T22:56:28.658Z,-3.30
2023-02-05T22:58:56.520Z,-3.40
2023-02-05T23:01:26.723Z,-3.40
2023-02-05T23:03:55.023Z,-3.30
2023-02-05T23:06:28.087Z,-3.30
2023-02-05T23:09:05.826Z,-3.30
2023-02-05T23:11:34.292Z,-3.50
2023-02-05T23:14:03.710Z,-3.70
2023-02-05T23:16:34.740Z,-3.80
2023-02-05T23:19:06.910Z,-4.00
2023-02-05T23:21:35.510Z,-4.10
2023-02-05T23:24:03.478Z,-4.20
2023-02-05T23:26:38.696Z,-4.20
2023-02-05T23:29:06.587Z,-4.20
2023-02-05T23:31:33.873Z,-4.10
2023-02-05T23:34:01.213Z,-4.00
2023-02-05T23:36:28.462Z,-4.00
2023-02-05T23:38:55.685Z,-3.90
2023-02-05T23:41:37.970Z,-4.00
2023-02-05T23:44:18.873Z,-4.00
2023-02-05T23:46:47.976Z,-4.00
2023-02-05T23:49:16.994Z,-4.00
2023-02-05T23:51:44.230Z,-4.00
2023-02-05T23:54:12.004Z,-4.00
2023-02-05T23:56:39.464Z,-4.00
2023-02-05T23:59:08.267Z,-4.00
